sensor_id;sensor_type;location;lat;lon;timestamp;P1;durP1;ratioP1;P2;durP2;ratioP2
15398;SDS011;7797;51.428;6.756;2023-04-07T00:01:31;13.40;;;12.10;;
15398;SDS011;7797;51.428;6.756;2023-04-07T00:03:58;14.70;;;12.97;;
15398;SDS011;7797;51.428;6.756;2023-04-07T00:06:25;14.27;;;12.80;;
15398;SDS011;7797;51.428;6.756;2023-04-07T00:08:52;16.10;;;14.33;;
15398;SDS011;7797;51.428;6.756;2023-04-07T00:11:19;15.73;;;13.70;;
15398;SDS011;7797;51.428;6.756;2023-04-07T00:13:46;15.17;;;13.60;;
15398;SDS011;7797;51.428;6.756;2023-04-07T00:16:13;15.33;;;13.70;;
15398;SDS011;7797;51.428;6.756;2023-04-07T00:18:40;16.07;;;14.47;;
15398;SDS011;7797;51.428;6.756;2023-04-07T00:21:06;16.03;;;14.37;;
15398;SDS011;7797;51.428;6.756;2023-04-07T00:23:33;17.10;;;14.87;;
15398;SDS011;7797;51.428;6.756;2023-04-07T00:26:00;15.93;;;14.33;;
15398;SDS011;7797;51.428;6.756;2023-04-07T00:28:27;17.27;;;14.97;;
15398;SDS011;7797;51.428;6.756;2023-04-07T00:30:53;16.17;;;14.53;;
15398;SDS011;7797;51.428;6.756;2023-04-07T00:33:20;16.23;;;14.50;;
15398;SDS011;7797;51.428;6.756;2023-04-07T00:35:47;16.80;;;14.97;;
15398;SDS011;7797;51.428;6.756;2023-04-07T00:38:14;16.97;;;14.53;;
15398;SDS011;7797;51.428;6.756;2023-04-07T00:40:40;15.83;;;14.17;;
15398;SDS011;7797;51.428;6.756;2023-04-07T00:43:07;17.87;;;15.33;;
15398;SDS011;7797;51.428;6.756;2023-04-07T00:45:34;16.27;;;14.27;;
15398;SDS011;7797;51.428;6.756;2023-04-07T00:48:01;16.27;;;14.47;;
15398;SDS011;7797;51.428;6.756;2023-04-07T00:50:29;16.60;;;14.90;;
15398;SDS011;7797;51.428;6.756;2023-04-07T00:52:56;17.00;;;15.30;;
15398;SDS011;7797;51.428;6.756;2023-04-07T00:55:22;16.53;;;14.87;;
15398;SDS011;7797;51.428;6.756;2023-04-07T00:57:49;14.47;;;12.83;;
15398;SDS011;7797;51.428;6.756;2023-04-07T01:00:17;16.30;;;14.60;;
15398;SDS011;7797;51.428;6.756;2023-04-07T01:02:46;14.53;;;12.70;;
15398;SDS011;7797;51.428;6.756;2023-04-07T01:08:16;16.23;;;14.37;;
15398;SDS011;7797;51.428;6.756;2023-04-07T01:13:36;16.40;;;14.03;;
15398;SDS011;7797;51.428;6.756;2023-04-07T01:16:08;14.57;;;13.00;;
15398;SDS011;7797;51.428;6.756;2023-04-07T01:18:37;19.20;;;16.40;;
15398;SDS011;7797;51.428;6.756;2023-04-07T01:21:05;17.73;;;13.43;;
15398;SDS011;7797;51.428;6.756;2023-04-07T01:23:46;18.30;;;15.00;;
15398;SDS011;7797;51.428;6.756;2023-04-07T01:26:19;21.30;;;15.20;;
15398;SDS011;7797;51.428;6.756;2023-04-07T01:29:03;20.27;;;15.67;;
15398;SDS011;7797;51.428;6.756;2023-04-07T01:31:38;22.40;;;16.83;;
15398;SDS011;7797;51.428;6.756;2023-04-07T01:34:08;22.53;;;17.17;;
15398;SDS011;7797;51.428;6.756;2023-04-07T01:36:35;26.30;;;18.77;;
15398;SDS011;7797;51.428;6.756;2023-04-07T01:39:03;31.83;;;18.93;;
15398;SDS011;7797;51.428;6.756;2023-04-07T01:41:31;35.83;;;18.30;;
15398;SDS011;7797;51.428;6.756;2023-04-07T01:43:58;23.83;;;15.73;;
15398;SDS011;7797;51.428;6.756;2023-04-07T01:46:26;22.93;;;15.37;;
15398;SDS011;7797;51.428;6.756;2023-04-07T01:48:53;23.93;;;16.30;;
15398;SDS011;7797;51.428;6.756;2023-04-07T01:51:21;21.87;;;16.47;;
15398;SDS011;7797;51.428;6.756;2023-04-07T01:53:49;21.23;;;15.43;;
15398;SDS011;7797;51.428;6.756;2023-04-07T01:56:16;19.50;;;15.27;;
15398;SDS011;7797;51.428;6.756;2023-04-07T01:58:42;18.57;;;14.77;;
15398;SDS011;7797;51.428;6.756;2023-04-07T02:01:09;18.10;;;14.73;;
15398;SDS011;7797;51.428;6.756;2023-04-07T02:03:42;18.90;;;14.73;;
15398;SDS011;7797;51.428;6.756;2023-04-07T02:06:13;19.53;;;15.23;;
15398;SDS011;7797;51.428;6.756;2023-04-07T02:08:44;19.30;;;14.60;;
15398;SDS011;7797;51.428;6.756;2023-04-07T02:11:14;20.60;;;15.03;;
15398;SDS011;7797;51.428;6.756;2023-04-07T02:13:43;19.30;;;15.53;;
15398;SDS011;7797;51.428;6.756;2023-04-07T02:16:11;23.67;;;16.63;;
15398;SDS011;7797;51.428;6.756;2023-04-07T02:18:38;21.77;;;15.63;;
15398;SDS011;7797;51.428;6.756;2023-04-07T02:21:06;19.07;;;15.27;;
15398;SDS011;7797;51.428;6.756;2023-04-07T02:23:34;21.17;;;15.20;;
15398;SDS011;7797;51.428;6.756;2023-04-07T02:26:01;21.17;;;15.07;;
15398;SDS011;7797;51.428;6.756;2023-04-07T02:28:28;20.63;;;14.70;;
15398;SDS011;7797;51.428;6.756;2023-04-07T02:30:54;20.70;;;15.00;;
15398;SDS011;7797;51.428;6.756;2023-04-07T02:33:21;21.77;;;15.17;;
15398;SDS011;7797;51.428;6.756;2023-04-07T02:35:48;22.80;;;15.97;;
15398;SDS011;7797;51.428;6.756;2023-04-07T02:38:15;22.40;;;15.67;;
15398;SDS011;7797;51.428;6.756;2023-04-07T02:40:41;26.03;;;16.03;;
15398;SDS011;7797;51.428;6.756;2023-04-07T02:43:08;23.77;;;16.10;;
15398;SDS011;7797;51.428;6.756;2023-04-07T02:45:35;23.77;;;16.30;;
15398;SDS011;7797;51.428;6.756;2023-04-07T02:48:01;21.20;;;15.93;;
15398;SDS011;7797;51.428;6.756;2023-04-07T02:50:28;21.13;;;15.50;;
15398;SDS011;7797;51.428;6.756;2023-04-07T02:52:55;24.07;;;15.97;;
15398;SDS011;7797;51.428;6.756;2023-04-07T02:55:22;25.30;;;15.83;;
15398;SDS011;7797;51.428;6.756;2023-04-07T02:57:48;21.83;;;14.37;;
15398;SDS011;7797;51.428;6.756;2023-04-07T03:00:15;21.23;;;14.03;;
15398;SDS011;7797;51.428;6.756;2023-04-07T03:02:42;19.97;;;14.20;;
15398;SDS011;7797;51.428;6.756;2023-04-07T03:05:09;18.50;;;13.73;;
15398;SDS011;7797;51.428;6.756;2023-04-07T03:07:36;22.83;;;14.03;;
15398;SDS011;7797;51.428;6.756;2023-04-07T03:10:03;20.30;;;14.27;;
15398;SDS011;7797;51.428;6.756;2023-04-07T03:12:29;20.77;;;13.87;;
15398;SDS011;7797;51.428;6.756;2023-04-07T03:14:56;19.43;;;13.80;;
15398;SDS011;7797;51.428;6.756;2023-04-07T03:17:23;20.87;;;13.70;;
15398;SDS011;7797;51.428;6.756;2023-04-07T03:19:50;19.80;;;13.47;;
15398;SDS011;7797;51.428;6.756;2023-04-07T03:22:17;21.33;;;13.97;;
15398;SDS011;7797;51.428;6.756;2023-04-07T03:24:44;20.93;;;13.13;;
15398;SDS011;7797;51.428;6.756;2023-04-07T03:27:10;24.43;;;14.30;;
15398;SDS011;7797;51.428;6.756;2023-04-07T03:29:37;22.00;;;12.93;;
15398;SDS011;7797;51.428;6.756;2023-04-07T03:32:04;21.63;;;13.73;;
15398;SDS011;7797;51.428;6.756;2023-04-07T03:34:34;24.67;;;14.60;;
15398;SDS011;7797;51.428;6.756;2023-04-07T03:37:00;19.10;;;13.80;;
15398;SDS011;7797;51.428;6.756;2023-04-07T03:39:27;22.60;;;14.37;;
15398;SDS011;7797;51.428;6.756;2023-04-07T03:41:54;22.43;;;13.70;;
15398;SDS011;7797;51.428;6.756;2023-04-07T03:44:21;23.53;;;13.47;;
15398;SDS011;7797;51.428;6.756;2023-04-07T03:46:48;23.17;;;13.80;;
15398;SDS011;7797;51.428;6.756;2023-04-07T03:49:16;24.10;;;13.73;;
15398;SDS011;7797;51.428;6.756;2023-04-07T03:51:42;25.33;;;13.57;;
15398;SDS011;7797;51.428;6.756;2023-04-07T03:54:09;21.00;;;14.07;;
15398;SDS011;7797;51.428;6.756;2023-04-07T03:56:36;19.50;;;13.40;;
15398;SDS011;7797;51.428;6.756;2023-04-07T03:59:03;23.30;;;13.63;;
15398;SDS011;7797;51.428;6.756;2023-04-07T04:01:30;21.17;;;12.13;;
15398;SDS011;7797;51.428;6.756;2023-04-07T04:03:57;18.23;;;12.53;;
15398;SDS011;7797;51.428;6.756;2023-04-07T04:06:24;19.30;;;12.57;;
15398;SDS011;7797;51.428;6.756;2023-04-07T04:08:52;16.10;;;11.87;;
15398;SDS011;7797;51.428;6.756;2023-04-07T04:11:19;17.83;;;12.10;;
15398;SDS011;7797;51.428;6.756;2023-04-07T04:13:45;17.13;;;11.70;;
15398;SDS011;7797;51.428;6.756;2023-04-07T04:16:12;21.03;;;13.03;;
15398;SDS011;7797;51.428;6.756;2023-04-07T04:18:40;17.53;;;12.40;;
15398;SDS011;7797;51.428;6.756;2023-04-07T04:21:07;20.10;;;11.97;;
15398;SDS011;7797;51.428;6.756;2023-04-07T04:23:34;17.77;;;10.87;;
15398;SDS011;7797;51.428;6.756;2023-04-07T04:26:01;16.93;;;11.43;;
15398;SDS011;7797;51.428;6.756;2023-04-07T04:28:29;22.23;;;12.73;;
15398;SDS011;7797;51.428;6.756;2023-04-07T04:30:56;16.23;;;12.60;;
15398;SDS011;7797;51.428;6.756;2023-04-07T04:33:23;21.67;;;11.97;;
15398;SDS011;7797;51.428;6.756;2023-04-07T04:35:50;19.03;;;11.67;;
15398;SDS011;7797;51.428;6.756;2023-04-07T04:38:17;20.47;;;12.13;;
15398;SDS011;7797;51.428;6.756;2023-04-07T04:40:44;19.23;;;12.13;;
15398;SDS011;7797;51.428;6.756;2023-04-07T04:43:11;19.67;;;11.40;;
15398;SDS011;7797;51.428;6.756;2023-04-07T04:45:37;18.80;;;11.67;;
15398;SDS011;7797;51.428;6.756;2023-04-07T04:48:04;19.60;;;11.03;;
15398;SDS011;7797;51.428;6.756;2023-04-07T04:50:31;18.87;;;11.40;;
15398;SDS011;7797;51.428;6.756;2023-04-07T04:52:58;18.07;;;11.23;;
15398;SDS011;7797;51.428;6.756;2023-04-07T04:55:25;15.27;;;10.70;;
15398;SDS011;7797;51.428;6.756;2023-04-07T04:57:51;18.73;;;11.50;;
15398;SDS011;7797;51.428;6.756;2023-04-07T05:00:18;19.07;;;10.67;;
15398;SDS011;7797;51.428;6.756;2023-04-07T05:02:46;17.67;;;11.03;;
15398;SDS011;7797;51.428;6.756;2023-04-07T05:05:13;16.83;;;10.60;;
15398;SDS011;7797;51.428;6.756;2023-04-07T05:07:40;15.13;;;10.00;;
15398;SDS011;7797;51.428;6.756;2023-04-07T05:10:07;15.77;;;10.10;;
15398;SDS011;7797;51.428;6.756;2023-04-07T05:12:34;17.20;;;11.17;;
15398;SDS011;7797;51.428;6.756;2023-04-07T05:15:02;14.73;;;10.30;;
15398;SDS011;7797;51.428;6.756;2023-04-07T05:17:28;14.13;;;9.87;;
15398;SDS011;7797;51.428;6.756;2023-04-07T05:19:55;19.50;;;10.47;;
15398;SDS011;7797;51.428;6.756;2023-04-07T05:22:22;15.80;;;9.47;;
15398;SDS011;7797;51.428;6.756;2023-04-07T05:24:49;14.83;;;9.87;;
15398;SDS011;7797;51.428;6.756;2023-04-07T05:27:16;15.40;;;10.07;;
15398;SDS011;7797;51.428;6.756;2023-04-07T05:29:42;14.27;;;9.70;;
15398;SDS011;7797;51.428;6.756;2023-04-07T05:32:09;17.50;;;10.73;;
15398;SDS011;7797;51.428;6.756;2023-04-07T05:34:36;20.57;;;9.73;;
15398;SDS011;7797;51.428;6.756;2023-04-07T05:37:02;16.53;;;9.17;;
15398;SDS011;7797;51.428;6.756;2023-04-07T05:39:29;14.43;;;9.43;;
15398;SDS011;7797;51.428;6.756;2023-04-07T05:41:56;15.63;;;9.83;;
15398;SDS011;7797;51.428;6.756;2023-04-07T05:44:23;16.73;;;10.20;;
15398;SDS011;7797;51.428;6.756;2023-04-07T05:46:50;15.20;;;10.10;;
15398;SDS011;7797;51.428;6.756;2023-04-07T05:49:16;15.90;;;9.90;;
15398;SDS011;7797;51.428;6.756;2023-04-07T05:51:45;19.60;;;11.03;;
15398;SDS011;7797;51.428;6.756;2023-04-07T05:54:14;18.80;;;10.13;;
15398;SDS011;7797;51.428;6.756;2023-04-07T05:56:41;18.03;;;9.87;;
15398;SDS011;7797;51.428;6.756;2023-04-07T05:59:08;19.97;;;10.43;;
15398;SDS011;7797;51.428;6.756;2023-04-07T06:01:35;17.57;;;10.23;;
15398;SDS011;7797;51.428;6.756;2023-04-07T06:04:02;14.70;;;9.73;;
15398;SDS011;7797;51.428;6.756;2023-04-07T06:06:29;16.40;;;9.97;;
15398;SDS011;7797;51.428;6.756;2023-04-07T06:08:56;18.53;;;10.63;;
15398;SDS011;7797;51.428;6.756;2023-04-07T06:11:24;16.17;;;10.20;;
15398;SDS011;7797;51.428;6.756;2023-04-07T06:13:51;16.83;;;10.63;;
15398;SDS011;7797;51.428;6.756;2023-04-07T06:16:18;18.30;;;10.13;;
15398;SDS011;7797;51.428;6.756;2023-04-07T06:18:45;18.50;;;10.27;;
15398;SDS011;7797;51.428;6.756;2023-04-07T06:21:12;18.60;;;10.33;;
15398;SDS011;7797;51.428;6.756;2023-04-07T06:23:39;17.73;;;9.97;;
15398;SDS011;7797;51.428;6.756;2023-04-07T06:26:08;23.60;;;10.33;;
15398;SDS011;7797;51.428;6.756;2023-04-07T06:28:36;22.07;;;10.87;;
15398;SDS011;7797;51.428;6.756;2023-04-07T06:31:03;21.43;;;10.27;;
15398;SDS011;7797;51.428;6.756;2023-04-07T06:33:30;16.33;;;9.63;;
15398;SDS011;7797;51.428;6.756;2023-04-07T06:35:57;13.60;;;9.07;;
15398;SDS011;7797;51.428;6.756;2023-04-07T06:38:24;17.13;;;8.60;;
15398;SDS011;7797;51.428;6.756;2023-04-07T06:40:50;17.40;;;10.00;;
15398;SDS011;7797;51.428;6.756;2023-04-07T06:43:17;15.07;;;8.73;;
15398;SDS011;7797;51.428;6.756;2023-04-07T06:45:44;15.90;;;8.60;;
15398;SDS011;7797;51.428;6.756;2023-04-07T06:48:11;13.17;;;8.13;;
15398;SDS011;7797;51.428;6.756;2023-04-07T06:50:37;15.37;;;8.70;;
15398;SDS011;7797;51.428;6.756;2023-04-07T06:53:04;16.27;;;8.67;;
15398;SDS011;7797;51.428;6.756;2023-04-07T06:55:31;13.97;;;9.07;;
15398;SDS011;7797;51.428;6.756;2023-04-07T06:57:58;13.77;;;8.50;;
15398;SDS011;7797;51.428;6.756;2023-04-07T07:00:25;15.97;;;8.90;;
15398;SDS011;7797;51.428;6.756;2023-04-07T07:02:55;15.50;;;9.47;;
15398;SDS011;7797;51.428;6.756;2023-04-07T07:05:22;15.43;;;8.37;;
15398;SDS011;7797;51.428;6.756;2023-04-07T07:07:49;13.47;;;8.37;;
15398;SDS011;7797;51.428;6.756;2023-04-07T07:10:17;14.60;;;9.10;;
15398;SDS011;7797;51.428;6.756;2023-04-07T07:12:45;17.40;;;9.13;;
15398;SDS011;7797;51.428;6.756;2023-04-07T07:15:12;13.50;;;8.23;;
15398;SDS011;7797;51.428;6.756;2023-04-07T07:17:39;14.87;;;8.97;;
15398;SDS011;7797;51.428;6.756;2023-04-07T07:20:06;17.17;;;8.70;;
15398;SDS011;7797;51.428;6.756;2023-04-07T07:22:33;13.37;;;7.93;;
15398;SDS011;7797;51.428;6.756;2023-04-07T07:25:02;14.93;;;8.23;;
15398;SDS011;7797;51.428;6.756;2023-04-07T07:27:29;10.77;;;7.73;;
15398;SDS011;7797;51.428;6.756;2023-04-07T07:29:56;13.77;;;8.07;;
15398;SDS011;7797;51.428;6.756;2023-04-07T07:32:23;11.43;;;7.73;;
15398;SDS011;7797;51.428;6.756;2023-04-07T07:34:49;15.73;;;8.07;;
15398;SDS011;7797;51.428;6.756;2023-04-07T07:37:16;10.30;;;7.60;;
15398;SDS011;7797;51.428;6.756;2023-04-07T07:39:43;16.53;;;8.23;;
15398;SDS011;7797;51.428;6.756;2023-04-07T07:42:10;13.77;;;8.07;;
15398;SDS011;7797;51.428;6.756;2023-04-07T07:44:36;11.17;;;7.77;;
15398;SDS011;7797;51.428;6.756;2023-04-07T07:47:03;12.33;;;8.43;;
15398;SDS011;7797;51.428;6.756;2023-04-07T07:49:30;13.23;;;8.80;;
15398;SDS011;7797;51.428;6.756;2023-04-07T07:51:57;15.00;;;9.00;;
15398;SDS011;7797;51.428;6.756;2023-04-07T07:54:25;13.97;;;9.03;;
15398;SDS011;7797;51.428;6.756;2023-04-07T07:56:51;17.17;;;9.10;;
15398;SDS011;7797;51.428;6.756;2023-04-07T07:59:18;15.93;;;9.57;;
15398;SDS011;7797;51.428;6.756;2023-04-07T08:01:45;15.73;;;9.30;;
15398;SDS011;7797;51.428;6.756;2023-04-07T08:04:11;17.40;;;10.10;;
15398;SDS011;7797;51.428;6.756;2023-04-07T08:06:39;16.00;;;9.87;;
15398;SDS011;7797;51.428;6.756;2023-04-07T08:09:06;15.03;;;10.00;;
15398;SDS011;7797;51.428;6.756;2023-04-07T08:11:32;17.63;;;10.70;;
15398;SDS011;7797;51.428;6.756;2023-04-07T08:13:59;15.43;;;9.87;;
15398;SDS011;7797;51.428;6.756;2023-04-07T08:16:26;18.93;;;10.60;;
15398;SDS011;7797;51.428;6.756;2023-04-07T08:18:53;15.37;;;10.20;;
15398;SDS011;7797;51.428;6.756;2023-04-07T08:21:19;17.17;;;10.70;;
15398;SDS011;7797;51.428;6.756;2023-04-07T08:23:46;16.90;;;10.83;;
15398;SDS011;7797;51.428;6.756;2023-04-07T08:26:14;16.67;;;10.67;;
15398;SDS011;7797;51.428;6.756;2023-04-07T08:28:40;17.63;;;10.90;;
15398;SDS011;7797;51.428;6.756;2023-04-07T08:31:07;14.60;;;10.13;;
15398;SDS011;7797;51.428;6.756;2023-04-07T08:33:34;14.97;;;10.37;;
15398;SDS011;7797;51.428;6.756;2023-04-07T08:36:01;16.93;;;10.07;;
15398;SDS011;7797;51.428;6.756;2023-04-07T08:38:28;17.13;;;9.80;;
15398;SDS011;7797;51.428;6.756;2023-04-07T08:40:57;14.47;;;9.77;;
15398;SDS011;7797;51.428;6.756;2023-04-07T08:43:29;15.13;;;10.47;;
15398;SDS011;7797;51.428;6.756;2023-04-07T08:45:56;16.40;;;10.77;;
15398;SDS011;7797;51.428;6.756;2023-04-07T08:48:23;20.47;;;10.53;;
15398;SDS011;7797;51.428;6.756;2023-04-07T08:50:56;14.47;;;9.43;;
15398;SDS011;7797;51.428;6.756;2023-04-07T08:53:25;15.33;;;10.53;;
15398;SDS011;7797;51.428;6.756;2023-04-07T08:55:55;17.47;;;11.17;;
15398;SDS011;7797;51.428;6.756;2023-04-07T08:58:21;16.70;;;9.90;;
15398;SDS011;7797;51.428;6.756;2023-04-07T09:00:49;16.67;;;10.00;;
15398;SDS011;7797;51.428;6.756;2023-04-07T09:03:16;20.87;;;10.43;;
15398;SDS011;7797;51.428;6.756;2023-04-07T09:05:44;15.60;;;9.70;;
15398;SDS011;7797;51.428;6.756;2023-04-07T09:08:13;21.80;;;9.77;;
15398;SDS011;7797;51.428;6.756;2023-04-07T09:10:40;17.17;;;11.27;;
15398;SDS011;7797;51.428;6.756;2023-04-07T09:13:07;15.77;;;9.57;;
15398;SDS011;7797;51.428;6.756;2023-04-07T09:15:33;17.93;;;9.67;;
15398;SDS011;7797;51.428;6.756;2023-04-07T09:18:03;14.30;;;9.57;;
15398;SDS011;7797;51.428;6.756;2023-04-07T09:20:53;16.97;;;9.83;;
15398;SDS011;7797;51.428;6.756;2023-04-07T09:23:26;18.47;;;9.10;;
15398;SDS011;7797;51.428;6.756;2023-04-07T09:26:23;14.30;;;9.23;;
15398;SDS011;7797;51.428;6.756;2023-04-07T09:28:56;15.97;;;9.63;;
15398;SDS011;7797;51.428;6.756;2023-04-07T09:36:50;17.73;;;9.90;;
15398;SDS011;7797;51.428;6.756;2023-04-07T09:39:17;14.80;;;9.60;;
15398;SDS011;7797;51.428;6.756;2023-04-07T09:41:44;18.13;;;10.63;;
15398;SDS011;7797;51.428;6.756;2023-04-07T09:44:12;15.40;;;10.07;;
15398;SDS011;7797;51.428;6.756;2023-04-07T09:46:54;19.83;;;10.97;;
15398;SDS011;7797;51.428;6.756;2023-04-07T09:49:23;15.23;;;10.13;;
15398;SDS011;7797;51.428;6.756;2023-04-07T09:54:32;15.27;;;10.43;;
15398;SDS011;7797;51.428;6.756;2023-04-07T09:57:01;16.97;;;10.63;;
15398;SDS011;7797;51.428;6.756;2023-04-07T09:59:29;18.17;;;10.33;;
15398;SDS011;7797;51.428;6.756;2023-04-07T10:01:57;18.03;;;11.33;;
15398;SDS011;7797;51.428;6.756;2023-04-07T10:04:24;17.37;;;11.33;;
15398;SDS011;7797;51.428;6.756;2023-04-07T10:06:52;22.50;;;10.77;;
15398;SDS011;7797;51.428;6.756;2023-04-07T10:09:21;20.37;;;10.53;;
15398;SDS011;7797;51.428;6.756;2023-04-07T10:11:49;18.53;;;10.90;;
15398;SDS011;7797;51.428;6.756;2023-04-07T10:14:17;16.10;;;10.30;;
15398;SDS011;7797;51.428;6.756;2023-04-07T10:16:45;15.63;;;9.33;;
15398;SDS011;7797;51.428;6.756;2023-04-07T10:19:12;15.27;;;9.47;;
15398;SDS011;7797;51.428;6.756;2023-04-07T10:21:40;17.57;;;10.00;;
15398;SDS011;7797;51.428;6.756;2023-04-07T10:27:03;13.80;;;8.60;;
15398;SDS011;7797;51.428;6.756;2023-04-07T10:29:34;11.53;;;7.73;;
15398;SDS011;7797;51.428;6.756;2023-04-07T10:32:04;18.67;;;8.50;;
15398;SDS011;7797;51.428;6.756;2023-04-07T10:37:16;11.53;;;7.03;;
15398;SDS011;7797;51.428;6.756;2023-04-07T10:39:50;11.67;;;6.93;;
15398;SDS011;7797;51.428;6.756;2023-04-07T10:45:04;10.63;;;6.67;;
15398;SDS011;7797;51.428;6.756;2023-04-07T10:47:32;8.90;;;6.10;;
15398;SDS011;7797;51.428;6.756;2023-04-07T10:50:15;10.60;;;6.47;;
15398;SDS011;7797;51.428;6.756;2023-04-07T10:52:47;8.30;;;6.17;;
15398;SDS011;7797;51.428;6.756;2023-04-07T10:55:41;9.27;;;6.50;;
15398;SDS011;7797;51.428;6.756;2023-04-07T11:03:27;10.73;;;6.63;;
15398;SDS011;7797;51.428;6.756;2023-04-07T11:06:05;10.67;;;6.40;;
15398;SDS011;7797;51.428;6.756;2023-04-07T11:08:39;7.57;;;5.90;;
15398;SDS011;7797;51.428;6.756;2023-04-07T11:11:15;9.47;;;6.57;;
15398;SDS011;7797;51.428;6.756;2023-04-07T11:14:05;9.97;;;6.33;;
15398;SDS011;7797;51.428;6.756;2023-04-07T11:16:36;6.43;;;5.83;;
15398;SDS011;7797;51.428;6.756;2023-04-07T11:19:08;8.63;;;5.33;;
15398;SDS011;7797;51.428;6.756;2023-04-07T11:21:35;7.67;;;6.37;;
15398;SDS011;7797;51.428;6.756;2023-04-07T11:24:02;7.03;;;5.67;;
15398;SDS011;7797;51.428;6.756;2023-04-07T11:26:29;11.87;;;6.30;;
15398;SDS011;7797;51.428;6.756;2023-04-07T11:29:03;8.00;;;6.17;;
15398;SDS011;7797;51.428;6.756;2023-04-07T11:31:30;12.13;;;7.17;;
15398;SDS011;7797;51.428;6.756;2023-04-07T11:33:58;9.43;;;6.27;;
15398;SDS011;7797;51.428;6.756;2023-04-07T11:36:27;9.53;;;6.20;;
15398;SDS011;7797;51.428;6.756;2023-04-07T11:38:56;8.23;;;6.93;;
15398;SDS011;7797;51.428;6.756;2023-04-07T11:41:24;10.30;;;6.93;;
15398;SDS011;7797;51.428;6.756;2023-04-07T11:44:11;12.10;;;7.73;;
15398;SDS011;7797;51.428;6.756;2023-04-07T11:49:20;11.73;;;8.20;;
15398;SDS011;7797;51.428;6.756;2023-04-07T11:51:56;12.80;;;7.70;;
15398;SDS011;7797;51.428;6.756;2023-04-07T11:54:47;10.97;;;7.27;;
15398;SDS011;7797;51.428;6.756;2023-04-07T11:57:24;10.37;;;7.57;;
15398;SDS011;7797;51.428;6.756;2023-04-07T12:00:10;10.90;;;7.47;;
15398;SDS011;7797;51.428;6.756;2023-04-07T12:02:38;13.03;;;7.93;;
15398;SDS011;7797;51.428;6.756;2023-04-07T12:05:05;9.57;;;7.70;;
15398;SDS011;7797;51.428;6.756;2023-04-07T12:07:32;9.87;;;7.10;;
15398;SDS011;7797;51.428;6.756;2023-04-07T12:10:16;9.90;;;7.70;;
15398;SDS011;7797;51.428;6.756;2023-04-07T12:12:45;12.17;;;7.63;;
15398;SDS011;7797;51.428;6.756;2023-04-07T12:15:12;10.53;;;8.27;;
15398;SDS011;7797;51.428;6.756;2023-04-07T12:17:43;12.27;;;8.20;;
15398;SDS011;7797;51.428;6.756;2023-04-07T12:20:12;13.37;;;8.47;;
15398;SDS011;7797;51.428;6.756;2023-04-07T12:22:40;13.90;;;9.70;;
15398;SDS011;7797;51.428;6.756;2023-04-07T12:25:07;14.37;;;9.30;;
15398;SDS011;7797;51.428;6.756;2023-04-07T12:27:34;13.93;;;9.73;;
15398;SDS011;7797;51.428;6.756;2023-04-07T12:30:09;17.67;;;9.33;;
15398;SDS011;7797;51.428;6.756;2023-04-07T12:32:36;14.20;;;10.13;;
15398;SDS011;7797;51.428;6.756;2023-04-07T12:35:04;15.30;;;9.87;;
15398;SDS011;7797;51.428;6.756;2023-04-07T12:37:31;17.10;;;10.17;;
15398;SDS011;7797;51.428;6.756;2023-04-07T12:39:58;12.53;;;8.90;;
15398;SDS011;7797;51.428;6.756;2023-04-07T12:42:26;13.07;;;9.13;;
15398;SDS011;7797;51.428;6.756;2023-04-07T12:44:55;13.53;;;9.30;;
15398;SDS011;7797;51.428;6.756;2023-04-07T12:47:22;12.63;;;9.73;;
15398;SDS011;7797;51.428;6.756;2023-04-07T12:49:49;15.97;;;9.70;;
15398;SDS011;7797;51.428;6.756;2023-04-07T12:52:16;13.63;;;9.73;;
15398;SDS011;7797;51.428;6.756;2023-04-07T12:54:43;16.00;;;9.90;;
15398;SDS011;7797;51.428;6.756;2023-04-07T12:57:10;14.67;;;9.33;;
15398;SDS011;7797;51.428;6.756;2023-04-07T12:59:37;12.27;;;9.17;;
15398;SDS011;7797;51.428;6.756;2023-04-07T13:02:04;17.00;;;9.37;;
15398;SDS011;7797;51.428;6.756;2023-04-07T13:04:31;12.17;;;8.40;;
15398;SDS011;7797;51.428;6.756;2023-04-07T13:07:01;14.20;;;8.90;;
15398;SDS011;7797;51.428;6.756;2023-04-07T13:09:28;13.77;;;9.30;;
15398;SDS011;7797;51.428;6.756;2023-04-07T13:11:55;15.13;;;9.00;;
15398;SDS011;7797;51.428;6.756;2023-04-07T13:14:23;15.30;;;9.50;;
15398;SDS011;7797;51.428;6.756;2023-04-07T13:16:50;10.40;;;8.50;;
15398;SDS011;7797;51.428;6.756;2023-04-07T13:19:17;12.13;;;9.03;;
15398;SDS011;7797;51.428;6.756;2023-04-07T13:21:43;12.97;;;9.90;;
15398;SDS011;7797;51.428;6.756;2023-04-07T13:24:13;13.50;;;9.77;;
15398;SDS011;7797;51.428;6.756;2023-04-07T13:26:40;12.87;;;8.73;;
15398;SDS011;7797;51.428;6.756;2023-04-07T13:29:07;11.63;;;8.60;;
15398;SDS011;7797;51.428;6.756;2023-04-07T13:31:33;11.60;;;8.20;;
15398;SDS011;7797;51.428;6.756;2023-04-07T13:34:00;11.23;;;8.10;;
15398;SDS011;7797;51.428;6.756;2023-04-07T13:36:27;8.97;;;7.77;;
15398;SDS011;7797;51.428;6.756;2023-04-07T13:38:54;12.43;;;8.00;;
15398;SDS011;7797;51.428;6.756;2023-04-07T13:41:22;14.10;;;8.10;;
15398;SDS011;7797;51.428;6.756;2023-04-07T13:43:49;12.33;;;8.70;;
15398;SDS011;7797;51.428;6.756;2023-04-07T13:46:16;10.20;;;8.63;;
15398;SDS011;7797;51.428;6.756;2023-04-07T13:48:53;13.70;;;8.93;;
15398;SDS011;7797;51.428;6.756;2023-04-07T13:51:20;13.63;;;8.37;;
15398;SDS011;7797;51.428;6.756;2023-04-07T13:53:47;15.20;;;9.27;;
15398;SDS011;7797;51.428;6.756;2023-04-07T13:56:14;14.10;;;8.23;;
15398;SDS011;7797;51.428;6.756;2023-04-07T13:58:41;11.93;;;9.10;;
15398;SDS011;7797;51.428;6.756;2023-04-07T14:01:08;17.10;;;9.60;;
15398;SDS011;7797;51.428;6.756;2023-04-07T14:03:34;11.07;;;8.50;;
15398;SDS011;7797;51.428;6.756;2023-04-07T14:06:01;15.20;;;9.27;;
15398;SDS011;7797;51.428;6.756;2023-04-07T14:08:28;15.67;;;9.30;;
15398;SDS011;7797;51.428;6.756;2023-04-07T14:10:55;18.87;;;10.20;;
15398;SDS011;7797;51.428;6.756;2023-04-07T14:13:22;12.10;;;9.53;;
15398;SDS011;7797;51.428;6.756;2023-04-07T14:15:49;17.20;;;9.77;;
15398;SDS011;7797;51.428;6.756;2023-04-07T14:18:15;16.93;;;9.93;;
15398;SDS011;7797;51.428;6.756;2023-04-07T14:20:42;14.30;;;9.57;;
15398;SDS011;7797;51.428;6.756;2023-04-07T14:23:09;14.70;;;9.27;;
15398;SDS011;7797;51.428;6.756;2023-04-07T14:25:36;15.70;;;9.27;;
15398;SDS011;7797;51.428;6.756;2023-04-07T14:28:03;14.33;;;10.17;;
15398;SDS011;7797;51.428;6.756;2023-04-07T14:30:30;17.67;;;11.00;;
15398;SDS011;7797;51.428;6.756;2023-04-07T14:32:59;20.83;;;10.80;;
15398;SDS011;7797;51.428;6.756;2023-04-07T14:35:30;19.33;;;11.70;;
15398;SDS011;7797;51.428;6.756;2023-04-07T14:38:03;21.13;;;11.40;;
15398;SDS011;7797;51.428;6.756;2023-04-07T14:40:30;16.10;;;10.40;;
15398;SDS011;7797;51.428;6.756;2023-04-07T14:42:57;17.53;;;10.83;;
15398;SDS011;7797;51.428;6.756;2023-04-07T14:45:27;18.87;;;11.17;;
15398;SDS011;7797;51.428;6.756;2023-04-07T14:47:54;17.57;;;11.40;;
15398;SDS011;7797;51.428;6.756;2023-04-07T14:50:21;23.70;;;12.17;;
15398;SDS011;7797;51.428;6.756;2023-04-07T14:52:49;21.77;;;12.07;;
15398;SDS011;7797;51.428;6.756;2023-04-07T14:55:16;18.00;;;12.47;;
15398;SDS011;7797;51.428;6.756;2023-04-07T14:57:43;22.40;;;12.63;;
15398;SDS011;7797;51.428;6.756;2023-04-07T15:00:11;19.50;;;12.80;;
15398;SDS011;7797;51.428;6.756;2023-04-07T15:02:38;17.13;;;12.37;;
15398;SDS011;7797;51.428;6.756;2023-04-07T15:05:05;17.40;;;11.97;;
15398;SDS011;7797;51.428;6.756;2023-04-07T15:07:33;17.97;;;11.27;;
15398;SDS011;7797;51.428;6.756;2023-04-07T15:10:06;14.77;;;11.50;;
15398;SDS011;7797;51.428;6.756;2023-04-07T15:12:33;15.03;;;10.33;;
15398;SDS011;7797;51.428;6.756;2023-04-07T15:14:59;17.37;;;10.80;;
15398;SDS011;7797;51.428;6.756;2023-04-07T15:17:26;15.63;;;10.13;;